Live Audio



buiten  Outside


The Shack  The Shack


Woonkamer  Woonkamer


The Shack 2  The Shack 2


Onweer radar Meer informatie blitzortung!


Regen radar Meer informatie rain snow radar


Bezoek onze andere website:

Template documentation
and downloads

And another site



Het weer levert geen direct gevaar op.    Er zijn geen waarschuwingen afgegeven.

METAR rapporten vliegvelden

   
EHAM - Amsterdam/Schiph, Netherlands
Afstand tot: OZO 26 km
Gewijzigd: 22-02-2018 18:55
Helder  
Helder  
   Wind: NO 22.2 km/h
Wind: NO 22.2 km/h
Temperatuur: 1°C
Voelt als: -4°C
Dauwpunt: -2°C
Vochtigheid: 81%
Barometer: 1024 hPa
Zicht: More then 10 km
Bewolking: Helder m
EHAM 221755Z 05012KT CAVOK 01/M02 Q1024 NOSIG
EHRD - Rotterdam Airpor, Netherlands
Afstand tot: Z 50 km
Gewijzigd: 22-02-2018 18:55
Helder  
Helder  
   Wind: NO 16.7 km/h
Wind: NO 16.7 km/h
Temperatuur: 1°C
Voelt als: -3°C
Dauwpunt: -3°C
Vochtigheid: 75%
Barometer: 1024 hPa
Bewolking: Clear
Zicht: More then 10 km
Bewolking: Helder m
EHRD 221755Z AUTO 04009KT 9999 NCD 01/M03 Q1024 NOSIG
EHQE - Hoorn-A Sea, Netherlands
Afstand tot: NNW 60 km
Gewijzigd: 22-02-2018 18:55
Licht bewolkt  
Licht bewolkt  
   Wind: NO 35.2 km/h
Wind: NO 35.2 km/h
Temperatuur: 3°C
Voelt als: -3°C
Dauwpunt: -2°C
Vochtigheid: 70%
Barometer: 1025 hPa
Bewolking: Few Clouds
Zicht: More then 10 km
Bewolking: Licht bewolkt 670.6 m
EHQE 221755Z AUTO 04019KT 9999 FEW022 03/M02 Q1025 W///H///
EHKD - De Kooy (navy), Netherlands
Afstand tot: NNO 61 km
Gewijzigd: 22-02-2018 19:16
Nevel, Grotendeels bewolkt  
Nevel, Grotendeels bewolkt  
   Wind: NO 18.5 km/h
Wind: NO 18.5 km/h
Temperatuur: 2°C
Voelt als: -2°C
Dauwpunt: -1°C
Vochtigheid: 81%
Barometer: 1025 hPa
Bewolking: Mostly Cloudy
Zicht: 9 km
Bewolking: Grotendeels bewolkt 944.9 m,
Grotendeels bewolkt 1280.2 m,
Grotendeels bewolkt 1737.4 m
EHKD 221816Z AUTO 05010KT 9000 HZ BKN031 BKN042 BKN057 02/M01 Q1025 BLU 06009KT 8000 FEW020 BKN030
EHPG - P11-B Sea, Netherlands
Afstand tot: W 73 km
Gewijzigd: 22-02-2018 18:55
Gedeeltelijk bewolkt  
Gedeeltelijk bewolkt  
   Wind: NO 42.6 km/h
Wind: NO 42.6 km/h
Temperatuur: 4°C
Voelt als: -2°C
Dauwpunt: -2°C
Vochtigheid: 65%
Barometer: 1024 hPa
Bewolking: Partly Cloudy
Zicht: More then 10 km
Bewolking: Gedeeltelijk bewolkt m
EHPG 221755Z AUTO 05023KT 9999 NSC 04/M02 Q1024 W///H///
EHSC - Goeree Le Sea, Netherlands
Afstand tot: ZW 74 km
Gewijzigd: 22-02-2018 18:55
  
  
   Wind: ONO 44.4 km/h
Wind: ONO 44.4 km/h
Temperatuur: 4°C
Voelt als: -2°C
Dauwpunt: -2°C
Vochtigheid: 65%
Barometer: 1023 hPa
Zicht: More then 10 km
EHSC 221755Z AUTO 06024KT 9999 ///////// 04/M02 Q1023 W05/H9

Script ontwikkeld door  Saratoga-weather.org Aangepast voor de template door  Weerstation Leuven

U vindt ons ook hier:

Het Weer Aktueel

UK Metoffice

Weather Underground

AWEKAS

HAMweather, WeatherForYou, PWS Weather

Apparatuur in gebruik:

Weerstation
Davis VP2

Weerprogramma
Weather Display

Weercomputer
Paradigit

Webleverancier
Mijn provider

Davis VP2

Weather Display

Paradigit

Mijn provider